createdAt,value
2022-09-30T00:00:47.525Z,11.98
2022-09-30T00:05:56.191Z,11.63
2022-09-30T00:11:01.656Z,10.88
2022-09-30T00:16:03.743Z,10.55
2022-09-30T00:21:08.182Z,9.85
2022-09-30T00:26:18.339Z,9.93
2022-09-30T00:31:21.495Z,10.90
2022-09-30T00:36:22.988Z,9.93
2022-09-30T00:41:24.991Z,11.82
2022-09-30T00:46:39.788Z,11.73
2022-09-30T00:51:54.497Z,9.75
2022-09-30T00:56:59.088Z,13.77
2022-09-30T01:02:01.384Z,9.00
2022-09-30T01:07:05.861Z,14.73
2022-09-30T01:12:10.911Z,15.68
2022-09-30T01:17:41.148Z,14.38
2022-09-30T01:22:45.210Z,13.10
2022-09-30T01:28:04.844Z,11.18
2022-09-30T01:33:19.492Z,13.20
2022-09-30T01:38:49.654Z,13.02
2022-09-30T01:44:08.522Z,10.77
2022-09-30T01:49:38.517Z,13.10
2022-09-30T01:54:48.251Z,12.98
2022-09-30T02:00:04.103Z,11.13
2022-09-30T02:05:11.610Z,13.63
2022-09-30T02:10:20.816Z,11.57
2022-09-30T02:15:28.284Z,8.30
2022-09-30T02:20:33.170Z,11.80
2022-09-30T02:25:42.292Z,11.02
2022-09-30T02:30:49.985Z,9.15
2022-09-30T02:35:59.027Z,13.00
2022-09-30T02:41:06.558Z,8.65
2022-09-30T02:51:26.461Z,11.50
2022-09-30T02:56:45.940Z,10.75
2022-09-30T03:01:47.547Z,8.88
2022-09-30T03:06:49.362Z,12.27
2022-09-30T03:11:54.210Z,15.18
2022-09-30T03:17:08.500Z,15.27
2022-09-30T03:22:40.608Z,12.82
2022-09-30T03:27:54.670Z,9.10
2022-09-30T03:33:25.085Z,11.50
2022-09-30T03:38:49.414Z,8.70
2022-09-30T03:44:22.140Z,12.15
2022-09-30T03:49:28.309Z,12.80
2022-09-30T03:54:29.878Z,12.80
2022-09-30T03:59:31.224Z,13.77
2022-09-30T04:04:32.610Z,9.38
2022-09-30T04:09:34.663Z,13.68
2022-09-30T04:14:36.423Z,9.80
2022-09-30T04:19:40.165Z,9.90
2022-09-30T04:24:41.843Z,10.85
2022-09-30T04:29:43.206Z,11.23
2022-09-30T04:34:44.551Z,9.95
2022-09-30T04:39:45.876Z,14.18
2022-09-30T04:44:48.086Z,10.10
2022-09-30T04:49:49.416Z,13.90
2022-09-30T04:54:50.760Z,14.30
2022-09-30T04:59:52.256Z,10.40
2022-09-30T05:04:55.159Z,13.30
2022-09-30T05:09:56.514Z,13.43
2022-09-30T05:14:57.840Z,10.95
2022-09-30T05:19:59.625Z,11.48
2022-09-30T05:25:03.832Z,10.93
2022-09-30T05:30:06.687Z,10.68
2022-09-30T05:35:09.261Z,12.85
2022-09-30T05:40:10.749Z,16.60
2022-09-30T05:45:12.124Z,17.75
2022-09-30T05:50:13.485Z,10.18
2022-09-30T05:55:16.461Z,13.00
2022-09-30T06:00:18.854Z,15.65
2022-09-30T06:05:22.013Z,12.00
2022-09-30T06:10:24.081Z,13.57
2022-09-30T06:15:26.873Z,15.07
2022-09-30T06:20:28.216Z,12.07
2022-09-30T06:25:30.049Z,8.32
2022-09-30T06:30:35.071Z,7.00
2022-09-30T06:35:36.909Z,7.95
2022-09-30T06:40:38.499Z,8.38
2022-09-30T06:45:39.915Z,7.30
2022-09-30T06:50:43.500Z,7.30
2022-09-30T06:55:54.557Z,9.32
2022-09-30T07:01:02.150Z,7.97
2022-09-30T07:11:12.518Z,7.57
2022-09-30T07:16:14.580Z,9.63
2022-09-30T07:21:16.415Z,10.20
2022-09-30T07:26:22.729Z,7.13
2022-09-30T07:31:35.261Z,9.25
2022-09-30T07:36:39.234Z,5.85
2022-09-30T07:41:40.836Z,8.57
2022-09-30T07:46:43.873Z,7.65
2022-09-30T07:51:45.611Z,7.00
2022-09-30T08:02:14.319Z,10.60
2022-09-30T08:07:17.633Z,8.07
2022-09-30T08:12:18.983Z,7.68
2022-09-30T08:17:20.327Z,7.70
2022-09-30T08:22:23.754Z,7.45
2022-09-30T08:27:25.151Z,7.50
2022-09-30T08:32:30.531Z,8.40
2022-09-30T08:37:31.987Z,9.20
2022-09-30T08:42:41.607Z,9.48
2022-09-30T08:47:56.241Z,7.28
2022-09-30T08:53:02.152Z,8.73
2022-09-30T08:58:05.030Z,11.55
2022-09-30T09:03:06.636Z,6.68
2022-09-30T09:08:28.559Z,8.65
2022-09-30T09:13:51.125Z,10.77
2022-09-30T09:19:08.227Z,14.93
2022-09-30T09:24:18.125Z,8.13
2022-09-30T09:29:43.817Z,9.77
2022-09-30T09:34:51.677Z,11.27
2022-09-30T09:40:04.538Z,11.68
2022-09-30T09:45:14.881Z,11.80
2022-09-30T09:50:27.662Z,8.00
2022-09-30T09:55:29.072Z,7.22
2022-09-30T10:00:48.611Z,8.30
2022-09-30T10:06:12.739Z,9.30
2022-09-30T10:11:22.856Z,6.65
2022-09-30T10:16:37.399Z,8.80
2022-09-30T10:21:38.748Z,8.07
2022-09-30T10:26:48.457Z,9.20
2022-09-30T10:31:54.033Z,7.00
2022-09-30T10:37:01.452Z,6.03
2022-09-30T10:42:17.139Z,9.15
2022-09-30T10:47:26.159Z,7.40
2022-09-30T10:52:32.292Z,7.68
2022-09-30T10:57:36.308Z,8.38
2022-09-30T11:02:41.782Z,9.80
2022-09-30T11:07:53.378Z,5.13
2022-09-30T11:13:19.385Z,5.13
2022-09-30T11:18:52.584Z,8.13
2022-09-30T11:24:02.352Z,7.03
2022-09-30T11:29:26.670Z,5.18
2022-09-30T11:34:44.887Z,2.60
2022-09-30T11:40:19.317Z,4.65
2022-09-30T11:45:39.761Z,5.72
2022-09-30T11:51:18.721Z,6.30
2022-09-30T11:56:46.190Z,6.40
2022-09-30T12:07:18.965Z,6.30
2022-09-30T12:12:20.829Z,4.20
2022-09-30T12:17:32.071Z,2.88
2022-09-30T12:22:41.131Z,7.10
2022-09-30T12:28:27.023Z,2.72
2022-09-30T12:33:43.273Z,7.18
2022-09-30T12:39:08.159Z,2.45
2022-09-30T12:44:35.996Z,3.22
2022-09-30T12:49:40.178Z,1.17
2022-09-30T12:54:48.086Z,5.57
2022-09-30T13:00:00.965Z,3.75
2022-09-30T13:05:46.719Z,3.60
2022-09-30T13:10:58.360Z,3.78
2022-09-30T13:16:05.623Z,2.90
2022-09-30T13:21:08.414Z,2.10
2022-09-30T13:26:34.732Z,1.50
2022-09-30T13:31:45.290Z,1.17
2022-09-30T13:36:52.487Z,2.33
2022-09-30T13:42:01.507Z,1.42
2022-09-30T13:47:22.001Z,3.17
2022-09-30T13:52:31.364Z,2.40
2022-09-30T13:57:49.017Z,0.65
2022-09-30T14:03:26.482Z,0.60
2022-09-30T14:08:50.615Z,1.77
2022-09-30T14:14:17.267Z,1.23
2022-09-30T14:19:32.517Z,3.87
2022-09-30T14:24:37.833Z,2.60
2022-09-30T14:29:45.480Z,1.42
2022-09-30T14:34:48.524Z,2.47
2022-09-30T14:39:50.076Z,3.33
2022-09-30T14:44:54.206Z,3.05
2022-09-30T14:49:55.596Z,2.25
2022-09-30T14:54:57.943Z,2.15
2022-09-30T15:00:21.191Z,1.23
2022-09-30T15:05:23.001Z,2.28
2022-09-30T15:10:25.062Z,2.03
2022-09-30T15:15:33.299Z,2.08
2022-09-30T15:20:36.655Z,2.50
2022-09-30T15:25:40.029Z,3.22
2022-09-30T15:30:43.059Z,1.25
2022-09-30T15:35:45.321Z,1.88
2022-09-30T15:40:58.954Z,2.47
2022-09-30T15:46:19.507Z,1.63
2022-09-30T15:51:36.349Z,1.35
2022-09-30T15:56:37.846Z,5.50
2022-09-30T16:01:44.397Z,1.75
2022-09-30T16:06:54.555Z,2.17
2022-09-30T16:12:08.722Z,1.60
2022-09-30T16:17:27.002Z,1.83
2022-09-30T16:22:40.657Z,0.40
2022-09-30T16:27:42.193Z,2.47
2022-09-30T16:32:47.455Z,1.88
2022-09-30T16:37:50.762Z,2.15
2022-09-30T16:42:54.807Z,2.90
2022-09-30T16:47:58.050Z,2.30
2022-09-30T16:52:59.429Z,1.95
2022-09-30T16:58:00.953Z,1.33
2022-09-30T17:03:02.392Z,3.55
2022-09-30T17:08:03.761Z,1.33
2022-09-30T17:13:06.032Z,2.13
2022-09-30T17:18:10.036Z,5.15
2022-09-30T17:23:12.511Z,3.15
2022-09-30T17:28:14.550Z,6.65
2022-09-30T17:33:18.503Z,4.90
2022-09-30T17:38:19.905Z,6.45
2022-09-30T17:43:21.514Z,7.72
2022-09-30T17:48:23.548Z,9.50
2022-09-30T17:53:25.074Z,15.60
2022-09-30T17:58:27.069Z,14.57
2022-09-30T18:03:28.460Z,29.75
2022-09-30T18:08:29.842Z,15.60
2022-09-30T18:13:31.178Z,17.95
2022-09-30T18:18:35.053Z,20.70
2022-09-30T18:23:36.452Z,45.00
2022-09-30T18:28:38.042Z,39.35
2022-09-30T18:33:39.557Z,37.25
2022-09-30T18:38:40.931Z,25.52
2022-09-30T18:43:45.092Z,25.27
2022-09-30T18:48:50.043Z,28.35
2022-09-30T18:53:57.418Z,23.23
2022-09-30T19:04:05.812Z,22.88
2022-09-30T19:09:08.800Z,15.90
2022-09-30T19:14:12.436Z,20.92
2022-09-30T19:19:13.989Z,46.88
2022-09-30T19:24:17.028Z,20.05
2022-09-30T19:29:18.493Z,14.00
2022-09-30T19:34:30.286Z,17.80
2022-09-30T19:39:44.268Z,15.75
2022-09-30T19:44:47.056Z,14.70
2022-09-30T19:49:48.456Z,8.52
2022-09-30T19:54:50.768Z,10.55
2022-09-30T19:59:53.252Z,8.18
2022-09-30T20:04:54.805Z,9.50
2022-09-30T20:09:56.777Z,9.77
2022-09-30T20:15:16.656Z,9.18
2022-09-30T20:20:37.047Z,10.18
2022-09-30T20:25:38.771Z,8.55
2022-09-30T20:30:48.189Z,8.10
2022-09-30T20:35:50.862Z,11.68
2022-09-30T20:40:57.042Z,13.25
2022-09-30T20:46:03.351Z,11.38
2022-09-30T20:51:10.076Z,12.20
2022-09-30T20:56:15.112Z,12.33
2022-09-30T21:01:18.469Z,10.50
2022-09-30T21:06:25.012Z,10.30
2022-09-30T21:11:26.509Z,12.73
2022-09-30T21:16:29.467Z,13.88
2022-09-30T21:21:31.265Z,12.85
2022-09-30T21:26:32.835Z,13.32
2022-09-30T21:31:35.172Z,13.73
2022-09-30T21:36:38.876Z,14.25
2022-09-30T21:41:41.065Z,9.75
2022-09-30T21:46:48.035Z,12.60
2022-09-30T21:51:51.552Z,15.68
2022-09-30T21:56:53.398Z,11.02
2022-09-30T22:01:54.880Z,18.13
2022-09-30T22:06:56.291Z,13.38
2022-09-30T22:11:58.097Z,12.05
2022-09-30T22:16:59.505Z,9.65
2022-09-30T22:22:01.667Z,12.25
2022-09-30T22:27:07.432Z,12.82
2022-09-30T22:32:08.973Z,16.70
2022-09-30T22:37:28.688Z,10.73
2022-09-30T22:42:30.069Z,7.70
2022-09-30T22:47:31.751Z,14.32
2022-09-30T22:52:33.130Z,8.70
2022-09-30T22:57:34.756Z,10.80
2022-09-30T23:02:36.219Z,13.45
2022-09-30T23:07:37.711Z,16.58
2022-09-30T23:12:39.138Z,18.63
2022-09-30T23:17:40.534Z,11.80
2022-09-30T23:22:41.916Z,12.55
2022-09-30T23:27:47.610Z,9.90
2022-09-30T23:32:49.036Z,12.50
2022-09-30T23:37:52.318Z,9.70
2022-09-30T23:42:54.178Z,11.02
2022-09-30T23:47:57.186Z,10.85
2022-09-30T23:52:59.253Z,12.20
2022-09-30T23:58:00.630Z,9.88
